createdAt,value
2018-07-29T00:00:54.468Z,20.30
2018-07-29T00:03:22.087Z,20.30
2018-07-29T00:05:49.681Z,20.40
2018-07-29T00:08:17.278Z,20.50
2018-07-29T00:10:44.870Z,20.40
2018-07-29T00:13:12.477Z,20.40
2018-07-29T00:15:40.057Z,20.40
2018-07-29T00:18:07.658Z,20.40
2018-07-29T00:20:35.273Z,20.40
2018-07-29T00:23:02.847Z,20.40
2018-07-29T00:25:30.483Z,20.30
2018-07-29T00:27:58.081Z,20.30
2018-07-29T00:30:25.886Z,20.30
2018-07-29T00:32:53.530Z,20.30
2018-07-29T00:35:21.129Z,20.30
2018-07-29T00:37:49.402Z,20.20
2018-07-29T00:40:17.033Z,20.20
2018-07-29T00:42:44.813Z,20.20
2018-07-29T00:45:12.437Z,20.20
2018-07-29T00:47:40.063Z,20.10
2018-07-29T00:55:02.781Z,20.10
2018-07-29T00:57:30.406Z,20.20
2018-07-29T01:02:25.574Z,20.10
2018-07-29T01:04:53.177Z,20.00
2018-07-29T01:07:20.751Z,19.90
2018-07-29T01:09:48.394Z,19.90
2018-07-29T01:12:15.985Z,19.80
2018-07-29T01:14:43.619Z,19.80
2018-07-29T01:17:11.235Z,19.80
2018-07-29T01:19:38.858Z,19.70
2018-07-29T01:22:06.437Z,19.60
2018-07-29T01:24:34.013Z,19.60
2018-07-29T01:27:01.626Z,19.60
2018-07-29T01:29:29.196Z,19.50
2018-07-29T01:31:56.773Z,19.50
2018-07-29T01:34:24.356Z,19.60
2018-07-29T01:39:19.821Z,19.60
2018-07-29T01:41:47.413Z,19.50
2018-07-29T01:44:14.991Z,19.60
2018-07-29T01:46:42.630Z,19.70
2018-07-29T01:49:10.672Z,19.80
2018-07-29T01:51:38.733Z,19.70
2018-07-29T01:54:06.713Z,19.70
2018-07-29T01:56:34.337Z,19.70
2018-07-29T01:59:01.906Z,19.80
2018-07-29T02:01:29.520Z,19.80
2018-07-29T02:03:57.089Z,19.80
2018-07-29T02:06:24.747Z,19.80
2018-07-29T02:08:52.334Z,19.90
2018-07-29T02:11:19.956Z,19.90
2018-07-29T02:13:47.508Z,19.90
2018-07-29T02:16:15.159Z,19.90
2018-07-29T02:18:42.818Z,19.80
2018-07-29T02:21:10.413Z,19.60
2018-07-29T02:23:38.000Z,19.50
2018-07-29T02:26:05.689Z,19.40
2018-07-29T02:28:33.796Z,19.50
2018-07-29T02:31:01.786Z,19.60
2018-07-29T02:33:30.999Z,19.60
2018-07-29T02:35:58.989Z,19.70
2018-07-29T02:38:26.702Z,19.60
2018-07-29T02:40:54.339Z,19.80
2018-07-29T02:43:21.926Z,19.80
2018-07-29T02:45:49.537Z,19.80
2018-07-29T02:48:17.134Z,19.80
2018-07-29T02:50:44.752Z,19.80
2018-07-29T02:53:12.305Z,19.80
2018-07-29T02:55:39.895Z,19.80
2018-07-29T02:58:07.487Z,19.80
2018-07-29T03:00:35.090Z,19.70
2018-07-29T03:03:02.698Z,19.70
2018-07-29T03:05:30.295Z,19.70
2018-07-29T03:07:57.881Z,19.80
2018-07-29T03:10:25.476Z,19.70
2018-07-29T03:12:53.049Z,19.80
2018-07-29T03:15:20.632Z,19.70
2018-07-29T03:17:48.287Z,19.60
2018-07-29T03:20:15.925Z,19.50
2018-07-29T03:22:43.510Z,19.50
2018-07-29T03:25:11.086Z,19.40
2018-07-29T03:27:38.731Z,19.40
2018-07-29T03:30:07.322Z,19.30
2018-07-29T03:32:34.958Z,19.20
2018-07-29T03:35:02.718Z,19.20
2018-07-29T03:37:30.317Z,19.20
2018-07-29T03:39:57.890Z,19.00
2018-07-29T03:42:25.596Z,18.90
2018-07-29T03:44:53.179Z,18.90
2018-07-29T03:47:20.774Z,18.80
2018-07-29T03:49:48.370Z,18.80
2018-07-29T03:52:16.003Z,18.80
2018-07-29T03:54:43.590Z,18.80
2018-07-29T03:57:11.200Z,18.90
2018-07-29T03:59:38.781Z,18.90
2018-07-29T04:02:06.525Z,18.80
2018-07-29T04:04:34.102Z,18.70
2018-07-29T04:07:01.830Z,18.70
2018-07-29T04:09:29.557Z,18.70
2018-07-29T04:11:57.291Z,18.70
2018-07-29T04:14:24.854Z,18.60
2018-07-29T04:16:52.467Z,18.60
2018-07-29T04:19:20.105Z,18.60
2018-07-29T04:21:47.721Z,18.60
2018-07-29T04:24:15.307Z,18.60
2018-07-29T04:26:42.921Z,18.60
2018-07-29T04:29:10.537Z,18.60
2018-07-29T04:31:38.133Z,18.70
2018-07-29T04:34:05.730Z,18.70
2018-07-29T04:36:33.492Z,18.70
2018-07-29T04:39:01.054Z,18.80
2018-07-29T04:41:28.643Z,18.80
2018-07-29T04:43:56.220Z,18.80
2018-07-29T04:46:23.865Z,18.80
2018-07-29T04:48:51.447Z,18.80
2018-07-29T04:51:19.072Z,18.80
2018-07-29T04:53:46.657Z,18.90
2018-07-29T04:56:14.437Z,18.90
2018-07-29T04:58:42.084Z,18.90
2018-07-29T05:01:09.761Z,18.90
2018-07-29T05:03:37.438Z,19.10
2018-07-29T05:06:05.626Z,19.20
2018-07-29T05:08:33.230Z,19.10
2018-07-29T05:11:00.951Z,19.10
2018-07-29T05:13:28.517Z,19.10
2018-07-29T05:15:56.307Z,19.20
2018-07-29T05:18:23.884Z,19.20
2018-07-29T05:20:51.466Z,19.20
2018-07-29T05:23:19.279Z,19.20
2018-07-29T05:25:46.869Z,19.30
2018-07-29T05:28:14.471Z,19.40
2018-07-29T05:30:42.683Z,19.50
2018-07-29T05:33:10.273Z,19.60
2018-07-29T05:35:41.765Z,19.60
2018-07-29T05:38:10.347Z,19.70
2018-07-29T05:40:39.725Z,19.70
2018-07-29T05:43:08.519Z,19.80
2018-07-29T05:45:36.395Z,19.80
2018-07-29T05:48:04.183Z,19.80
2018-07-29T05:50:31.823Z,19.90
2018-07-29T05:52:59.429Z,20.00
2018-07-29T05:55:27.026Z,20.10
2018-07-29T05:57:54.609Z,20.20
2018-07-29T06:00:22.181Z,20.20
2018-07-29T06:02:49.951Z,20.30
2018-07-29T06:05:17.558Z,20.40
2018-07-29T06:07:45.141Z,20.50
2018-07-29T06:10:12.710Z,20.70
2018-07-29T06:12:40.370Z,20.70
2018-07-29T06:15:08.002Z,20.70
2018-07-29T06:17:35.856Z,20.70
2018-07-29T06:20:04.213Z,20.70
2018-07-29T06:22:31.813Z,20.80
2018-07-29T06:24:59.385Z,20.90
2018-07-29T06:27:26.954Z,20.90
2018-07-29T06:29:54.553Z,21.10
2018-07-29T06:32:22.150Z,21.20
2018-07-29T06:34:49.761Z,21.20
2018-07-29T06:37:17.361Z,21.30
2018-07-29T06:39:44.976Z,21.50
2018-07-29T06:42:12.548Z,21.50
2018-07-29T06:44:40.352Z,21.60
2018-07-29T06:47:07.951Z,21.70
2018-07-29T06:49:35.606Z,21.70
2018-07-29T06:52:03.246Z,21.70
2018-07-29T06:54:30.913Z,21.70
2018-07-29T06:56:58.497Z,21.80
2018-07-29T06:59:26.503Z,21.70
2018-07-29T07:01:54.149Z,21.80
2018-07-29T07:04:22.249Z,21.90
2018-07-29T07:06:51.503Z,22.00
2018-07-29T07:09:19.230Z,22.20
2018-07-29T07:11:46.901Z,22.40
2018-07-29T07:14:14.521Z,22.60
2018-07-29T07:16:42.124Z,22.80
2018-07-29T07:19:09.794Z,23.00
2018-07-29T07:21:37.598Z,23.30
2018-07-29T07:24:05.497Z,23.40
2018-07-29T07:26:33.171Z,23.40
2018-07-29T07:29:00.813Z,23.60
2018-07-29T07:31:28.509Z,23.70
2018-07-29T07:33:56.125Z,23.80
2018-07-29T07:36:23.702Z,24.00
2018-07-29T07:38:51.944Z,24.10
2018-07-29T07:41:19.585Z,24.20
2018-07-29T07:43:47.642Z,24.50
2018-07-29T07:46:22.550Z,24.40
2018-07-29T07:48:50.877Z,24.40
2018-07-29T07:51:19.441Z,24.60
2018-07-29T07:53:47.074Z,24.80
2018-07-29T07:56:15.099Z,24.70
2018-07-29T07:58:42.830Z,24.70
2018-07-29T08:01:10.430Z,24.40
2018-07-29T08:03:38.006Z,24.40
2018-07-29T08:06:06.571Z,24.60
2018-07-29T08:08:34.137Z,24.50
2018-07-29T08:11:02.343Z,24.60
2018-07-29T08:13:29.906Z,24.80
2018-07-29T08:15:57.501Z,24.90
2018-07-29T08:18:25.082Z,24.90
2018-07-29T08:20:53.126Z,24.90
2018-07-29T08:23:20.713Z,25.10
2018-07-29T08:25:48.376Z,25.20
2018-07-29T08:28:16.693Z,25.30
2018-07-29T08:30:44.585Z,25.30
2018-07-29T08:33:12.298Z,25.30
2018-07-29T08:35:39.938Z,25.60
2018-07-29T08:38:07.513Z,25.70
2018-07-29T08:40:35.202Z,25.80
2018-07-29T08:43:02.857Z,26.00
2018-07-29T08:45:30.541Z,25.90
2018-07-29T08:47:58.046Z,25.90
2018-07-29T08:50:25.758Z,25.90
2018-07-29T08:52:53.367Z,26.10
2018-07-29T08:55:35.158Z,26.10
2018-07-29T08:58:02.810Z,26.20
2018-07-29T09:00:30.344Z,26.30
2018-07-29T09:02:57.986Z,26.30
2018-07-29T09:05:25.550Z,26.30
2018-07-29T09:08:00.586Z,26.30
2018-07-29T09:10:28.164Z,26.40
2018-07-29T09:12:55.922Z,26.10
2018-07-29T09:15:23.506Z,26.20
2018-07-29T09:17:51.086Z,26.40
2018-07-29T09:20:18.677Z,26.60
2018-07-29T09:22:46.221Z,26.80
2018-07-29T09:25:13.872Z,27.00
2018-07-29T09:27:41.442Z,26.90
2018-07-29T09:30:09.221Z,26.80
2018-07-29T09:32:37.138Z,26.70
2018-07-29T09:35:04.750Z,26.70
2018-07-29T09:37:32.497Z,26.60
2018-07-29T09:40:00.086Z,26.70
2018-07-29T09:42:27.933Z,26.70
2018-07-29T09:44:55.524Z,26.70
2018-07-29T09:47:23.919Z,26.70
2018-07-29T09:49:51.499Z,26.80
2018-07-29T09:52:19.049Z,26.70
2018-07-29T09:54:46.592Z,26.70
2018-07-29T09:57:14.297Z,26.60
2018-07-29T09:59:41.878Z,26.60
2018-07-29T10:02:09.476Z,26.40
2018-07-29T10:04:36.994Z,26.50
2018-07-29T10:07:04.770Z,26.50
2018-07-29T10:09:33.642Z,26.70
2018-07-29T10:12:01.256Z,26.60
2018-07-29T10:14:29.450Z,26.60
2018-07-29T10:16:57.595Z,26.70
2018-07-29T10:19:25.163Z,26.80
2018-07-29T10:21:59.520Z,26.80
2018-07-29T10:24:27.093Z,26.80
2018-07-29T10:26:54.690Z,26.90
2018-07-29T10:29:22.250Z,26.90
2018-07-29T10:31:49.888Z,27.10
2018-07-29T10:34:17.421Z,27.10
2018-07-29T10:36:44.990Z,27.10
2018-07-29T10:39:15.662Z,26.90
2018-07-29T10:41:43.845Z,26.90
2018-07-29T10:44:11.569Z,27.10
2018-07-29T10:46:39.290Z,27.10
2018-07-29T10:49:06.855Z,27.00
2018-07-29T10:51:34.713Z,26.90
2018-07-29T10:54:02.301Z,26.80
2018-07-29T10:56:30.225Z,26.90
2018-07-29T10:58:58.402Z,27.00
2018-07-29T11:01:26.080Z,27.00
2018-07-29T11:03:53.746Z,27.20
2018-07-29T11:06:21.348Z,27.50
2018-07-29T11:08:48.978Z,27.60
2018-07-29T11:11:16.560Z,27.40
2018-07-29T11:13:44.247Z,27.30
2018-07-29T11:16:11.906Z,27.30
2018-07-29T11:18:39.648Z,27.30
2018-07-29T11:21:07.499Z,27.50
2018-07-29T11:23:35.165Z,27.70
2018-07-29T11:26:02.741Z,27.80
2018-07-29T11:28:30.349Z,27.90
2018-07-29T11:30:58.153Z,28.10
2018-07-29T11:33:25.795Z,28.20
2018-07-29T11:35:53.626Z,28.10
2018-07-29T11:38:23.609Z,28.20
2018-07-29T11:40:51.194Z,28.30
2018-07-29T11:43:19.147Z,28.50
2018-07-29T11:45:46.674Z,28.30
2018-07-29T11:48:14.237Z,28.30
2018-07-29T11:50:41.867Z,28.20
2018-07-29T11:53:09.431Z,28.20
2018-07-29T11:55:37.261Z,28.20
2018-07-29T11:58:05.743Z,28.20
2018-07-29T12:00:33.809Z,28.10
2018-07-29T12:03:01.709Z,28.30
2018-07-29T12:05:29.225Z,28.40
2018-07-29T12:07:56.805Z,28.50
2018-07-29T12:10:24.402Z,28.50
2018-07-29T12:12:52.029Z,28.60
2018-07-29T12:15:19.742Z,28.70
2018-07-29T12:17:47.290Z,28.90
2018-07-29T12:20:14.935Z,28.90
2018-07-29T12:22:42.500Z,28.70
2018-07-29T12:25:10.304Z,29.10
2018-07-29T12:27:37.897Z,29.20
2018-07-29T12:30:06.001Z,28.90
2018-07-29T12:32:33.546Z,28.70
2018-07-29T12:35:01.111Z,28.80
2018-07-29T12:37:28.653Z,28.90
2018-07-29T12:39:56.168Z,29.10
2018-07-29T12:42:23.724Z,29.10
2018-07-29T12:44:51.464Z,29.20
2018-07-29T12:47:19.060Z,29.40
2018-07-29T12:49:46.721Z,29.60
2018-07-29T12:52:14.299Z,29.80
2018-07-29T12:54:42.000Z,29.60
2018-07-29T12:57:09.554Z,29.90
2018-07-29T12:59:37.175Z,29.70
2018-07-29T13:02:05.152Z,29.80
2018-07-29T13:04:32.722Z,29.50
2018-07-29T13:07:00.326Z,29.60
2018-07-29T13:09:27.932Z,29.60
2018-07-29T13:11:55.537Z,29.80
2018-07-29T13:14:23.074Z,30.10
2018-07-29T13:16:50.633Z,30.30
2018-07-29T13:19:18.262Z,30.40
2018-07-29T13:21:45.833Z,30.50
2018-07-29T13:24:13.395Z,30.40
2018-07-29T13:26:41.324Z,30.40
2018-07-29T13:29:08.882Z,30.80
2018-07-29T13:31:36.482Z,31.30
2018-07-29T13:34:04.109Z,32.10
2018-07-29T13:36:31.704Z,32.50
2018-07-29T13:38:59.320Z,33.00
2018-07-29T13:41:27.121Z,32.80
2018-07-29T13:43:54.697Z,32.60
2018-07-29T13:46:22.350Z,32.90
2018-07-29T13:48:49.916Z,33.30
2018-07-29T13:51:17.474Z,33.20
2018-07-29T13:53:45.049Z,33.50
2018-07-29T13:56:12.662Z,34.60
2018-07-29T13:58:40.260Z,35.20
2018-07-29T14:01:08.113Z,36.40
2018-07-29T14:03:35.714Z,37.20
2018-07-29T14:06:03.454Z,37.30
2018-07-29T14:08:31.372Z,37.10
2018-07-29T14:10:59.113Z,35.90
2018-07-29T14:13:26.660Z,35.90
2018-07-29T14:15:54.289Z,35.50
2018-07-29T14:18:21.852Z,35.80
2018-07-29T14:20:49.589Z,35.60
2018-07-29T14:23:17.180Z,35.00
2018-07-29T14:25:44.757Z,34.60
2018-07-29T14:28:12.317Z,34.10
2018-07-29T14:30:39.897Z,34.20
2018-07-29T14:33:08.055Z,33.70
2018-07-29T14:35:35.630Z,33.30
2018-07-29T14:38:03.268Z,33.10
2018-07-29T14:40:30.845Z,32.70
2018-07-29T14:42:58.477Z,32.60
2018-07-29T14:45:26.088Z,32.70
2018-07-29T14:47:53.624Z,32.90
2018-07-29T14:50:21.229Z,33.40
2018-07-29T14:52:48.868Z,33.50
2018-07-29T14:55:16.449Z,34.00
2018-07-29T14:57:44.009Z,34.50
2018-07-29T15:00:11.667Z,34.90
2018-07-29T15:02:42.358Z,35.50
2018-07-29T15:05:09.924Z,36.50
2018-07-29T15:07:37.574Z,35.90
2018-07-29T15:10:05.241Z,34.80
2018-07-29T15:12:32.821Z,34.40
2018-07-29T15:15:00.373Z,34.10
2018-07-29T15:17:27.933Z,34.70
2018-07-29T15:19:55.501Z,34.80
2018-07-29T15:22:23.033Z,35.80
2018-07-29T15:24:50.605Z,38.40
2018-07-29T15:27:18.301Z,40.00
2018-07-29T15:29:45.988Z,41.50
2018-07-29T15:32:13.989Z,40.90
2018-07-29T15:34:41.554Z,39.20
2018-07-29T15:37:11.875Z,37.30
2018-07-29T15:39:39.584Z,36.10
2018-07-29T15:42:08.143Z,35.40
2018-07-29T15:44:35.801Z,34.80
2018-07-29T15:47:03.413Z,34.00
2018-07-29T15:49:30.937Z,33.50
2018-07-29T15:51:58.763Z,33.10
2018-07-29T15:54:26.294Z,32.70
2018-07-29T15:56:54.905Z,32.60
2018-07-29T15:59:22.809Z,32.40
2018-07-29T16:01:50.437Z,32.50
2018-07-29T16:04:18.810Z,32.90
2018-07-29T16:06:46.506Z,34.20
2018-07-29T16:09:14.064Z,36.40
2018-07-29T16:11:41.695Z,38.00
2018-07-29T16:14:09.490Z,37.60
2018-07-29T16:16:37.094Z,36.50
2018-07-29T16:19:04.854Z,35.80
2018-07-29T16:21:32.517Z,35.70
2018-07-29T16:24:00.102Z,35.70
2018-07-29T16:26:28.079Z,35.10
2018-07-29T16:28:55.809Z,34.40
2018-07-29T16:31:23.440Z,34.10
2018-07-29T16:33:54.857Z,33.70
2018-07-29T16:36:22.451Z,33.50
2018-07-29T16:38:50.074Z,34.50
2018-07-29T16:41:17.784Z,34.80
2018-07-29T16:43:45.342Z,35.40
2018-07-29T16:46:13.054Z,35.40
2018-07-29T16:48:40.630Z,35.90
2018-07-29T16:51:08.354Z,36.90
2018-07-29T16:53:35.917Z,38.80
2018-07-29T16:56:03.869Z,40.50
2018-07-29T16:58:31.397Z,41.10
2018-07-29T17:00:59.239Z,41.00
2018-07-29T17:03:26.773Z,41.30
2018-07-29T17:05:54.429Z,41.50
2018-07-29T17:08:22.501Z,42.00
2018-07-29T17:10:50.614Z,41.80
2018-07-29T17:13:18.193Z,41.50
2018-07-29T17:15:45.749Z,41.10
2018-07-29T17:18:14.069Z,39.80
2018-07-29T17:20:42.445Z,39.70
2018-07-29T17:23:10.348Z,38.50
2018-07-29T17:25:37.914Z,36.80
2018-07-29T17:28:05.526Z,35.20
2018-07-29T17:32:56.242Z,34.50
2018-07-29T17:35:23.788Z,33.20
2018-07-29T17:37:51.964Z,32.70
2018-07-29T17:40:19.569Z,32.40
2018-07-29T17:42:47.156Z,31.60
2018-07-29T17:45:16.594Z,31.30
2018-07-29T17:47:44.162Z,31.00
2018-07-29T17:50:11.778Z,30.80
2018-07-29T17:52:39.344Z,30.70
2018-07-29T17:55:07.033Z,30.70
2018-07-29T17:57:34.586Z,30.70
2018-07-29T18:00:02.202Z,30.60
2018-07-29T18:02:29.882Z,30.50
2018-07-29T18:04:57.533Z,30.40
2018-07-29T18:07:25.113Z,30.30
2018-07-29T18:09:52.753Z,30.10
2018-07-29T18:12:21.231Z,30.00
2018-07-29T18:14:48.763Z,29.90
2018-07-29T18:17:16.318Z,29.80
2018-07-29T18:19:43.857Z,29.70
2018-07-29T18:22:11.394Z,29.50
2018-07-29T18:24:38.997Z,29.40
2018-07-29T18:27:06.337Z,29.40
2018-07-29T18:29:33.929Z,29.20
2018-07-29T18:32:01.497Z,29.20
2018-07-29T18:34:29.109Z,29.00
2018-07-29T18:36:56.641Z,28.90
2018-07-29T18:39:25.082Z,28.70
2018-07-29T18:41:52.722Z,28.60
2018-07-29T18:44:20.338Z,28.50
2018-07-29T18:46:47.885Z,28.40
2018-07-29T18:49:15.533Z,28.30
2018-07-29T18:51:43.125Z,28.20
2018-07-29T18:54:10.665Z,28.10
2018-07-29T18:56:38.168Z,28.00
2018-07-29T18:59:05.713Z,27.80
2018-07-29T19:01:33.264Z,27.70
2018-07-29T19:04:00.891Z,27.60
2018-07-29T19:06:28.523Z,27.50
2018-07-29T19:08:56.117Z,27.40
2018-07-29T19:11:23.770Z,27.40
2018-07-29T19:13:51.327Z,27.20
2018-07-29T19:16:18.866Z,27.10
2018-07-29T19:18:46.409Z,27.00
2018-07-29T19:21:14.692Z,26.90
2018-07-29T19:23:42.984Z,26.80
2018-07-29T19:26:10.560Z,26.80
2018-07-29T19:28:38.097Z,26.70
2018-07-29T19:31:05.697Z,26.60
2018-07-29T19:33:33.264Z,26.50
2018-07-29T19:36:00.817Z,26.50
2018-07-29T19:38:28.401Z,26.40
2018-07-29T19:40:56.273Z,26.40
2018-07-29T19:43:23.852Z,26.30
2018-07-29T19:45:51.383Z,26.30
2018-07-29T19:48:18.912Z,26.30
2018-07-29T19:50:46.452Z,26.20
2018-07-29T19:53:14.120Z,26.20
2018-07-29T19:55:41.699Z,26.10
2018-07-29T19:58:09.364Z,26.10
2018-07-29T20:00:37.090Z,26.00
2018-07-29T20:03:04.735Z,26.10
2018-07-29T20:05:33.108Z,26.00
2018-07-29T20:08:00.644Z,26.00
2018-07-29T20:10:29.492Z,26.00
2018-07-29T20:12:57.036Z,25.90
2018-07-29T20:15:24.593Z,25.90
2018-07-29T20:17:52.132Z,25.90
2018-07-29T20:20:20.358Z,25.90
2018-07-29T20:22:47.995Z,25.90
2018-07-29T20:25:15.558Z,25.90
2018-07-29T20:27:43.101Z,25.80
2018-07-29T20:30:10.873Z,25.70
2018-07-29T20:32:38.509Z,25.60
2018-07-29T20:35:14.544Z,25.50
2018-07-29T20:37:42.065Z,25.40
2018-07-29T20:40:10.532Z,25.30
2018-07-29T20:42:38.130Z,25.30
2018-07-29T20:45:07.670Z,25.20
2018-07-29T20:47:35.248Z,25.10
2018-07-29T20:50:04.248Z,24.90
2018-07-29T20:52:32.306Z,24.90
2018-07-29T20:54:59.877Z,24.80
2018-07-29T20:57:27.625Z,24.70
2018-07-29T20:59:55.285Z,24.60
2018-07-29T21:02:22.830Z,24.50
2018-07-29T21:04:50.399Z,24.50
2018-07-29T21:07:18.074Z,24.40
2018-07-29T21:09:45.633Z,24.30
2018-07-29T21:12:13.181Z,24.30
2018-07-29T21:14:40.769Z,24.30
2018-07-29T21:17:08.430Z,24.20
2018-07-29T21:19:36.456Z,24.20
2018-07-29T21:22:04.228Z,24.20
2018-07-29T21:24:34.833Z,24.20
2018-07-29T21:27:02.897Z,24.20
2018-07-29T21:29:30.477Z,24.20
2018-07-29T21:31:58.025Z,24.20
2018-07-29T21:34:25.596Z,24.20
2018-07-29T21:36:53.193Z,24.10
2018-07-29T21:39:20.741Z,24.10
2018-07-29T21:41:48.352Z,24.10
2018-07-29T21:44:15.993Z,24.10
2018-07-29T21:46:43.625Z,24.00
2018-07-29T21:49:11.248Z,24.00
2018-07-29T21:51:38.902Z,24.00
2018-07-29T21:54:06.465Z,24.00
2018-07-29T21:56:34.018Z,23.90
2018-07-29T21:59:01.682Z,24.00
2018-07-29T22:01:29.281Z,24.00
2018-07-29T22:03:59.778Z,23.90
2018-07-29T22:06:27.365Z,23.90
2018-07-29T22:08:54.881Z,23.90
2018-07-29T22:11:22.785Z,23.90
2018-07-29T22:13:50.630Z,23.90
2018-07-29T22:16:18.497Z,23.80
2018-07-29T22:18:46.534Z,23.90
2018-07-29T22:21:14.115Z,24.00
2018-07-29T22:23:41.653Z,24.00
2018-07-29T22:26:12.521Z,23.90
2018-07-29T22:28:43.926Z,23.90
2018-07-29T22:31:17.666Z,23.80
2018-07-29T22:33:46.658Z,23.70
2018-07-29T22:36:14.226Z,23.80
2018-07-29T22:38:42.466Z,23.70
2018-07-29T22:41:10.662Z,23.70
2018-07-29T22:43:38.318Z,23.80
2018-07-29T22:46:06.609Z,23.80
2018-07-29T22:48:34.205Z,23.80
2018-07-29T22:51:01.871Z,23.90
2018-07-29T22:53:29.449Z,23.90
2018-07-29T22:55:57.105Z,23.90
2018-07-29T22:58:25.001Z,23.90
2018-07-29T23:00:52.663Z,23.90
2018-07-29T23:03:20.738Z,23.90
2018-07-29T23:05:48.309Z,23.90
2018-07-29T23:08:15.942Z,24.00
2018-07-29T23:10:45.723Z,23.90
2018-07-29T23:13:13.380Z,23.80
2018-07-29T23:15:41.047Z,23.80
2018-07-29T23:18:08.678Z,23.80
2018-07-29T23:20:36.525Z,23.80
2018-07-29T23:23:04.276Z,23.80
2018-07-29T23:25:31.821Z,23.80
2018-07-29T23:27:59.419Z,23.80
2018-07-29T23:30:27.021Z,23.80
2018-07-29T23:32:54.578Z,23.80
2018-07-29T23:35:22.190Z,23.80
2018-07-29T23:37:49.794Z,23.90
2018-07-29T23:40:17.349Z,23.90
2018-07-29T23:42:44.929Z,23.90
2018-07-29T23:45:12.478Z,23.90
2018-07-29T23:47:40.032Z,23.90
2018-07-29T23:50:07.690Z,23.80
2018-07-29T23:52:35.595Z,23.80
2018-07-29T23:55:03.519Z,23.80
2018-07-29T23:57:31.221Z,23.80
2018-07-29T23:59:58.786Z,23.70
